createdAt,value
2017-11-03T16:21:35.182Z,95.40
2017-11-03T16:24:02.674Z,95.40
2017-11-03T16:26:29.474Z,95.20
2017-11-03T16:28:57.080Z,95.20
2017-11-03T16:31:23.886Z,95.20
2017-11-03T16:33:51.442Z,96.30
2017-11-03T16:36:19.017Z,96.30
2017-11-03T16:38:45.809Z,96.20
2017-11-03T16:41:12.601Z,96.10
2017-11-03T16:43:39.395Z,96.40
2017-11-03T16:46:06.301Z,95.80
2017-11-03T16:48:34.021Z,95.30
2017-11-03T16:51:00.822Z,95.30
2017-11-03T16:53:27.614Z,95.60
2017-11-03T16:55:55.166Z,96.60
2017-11-03T16:58:21.953Z,96.60
2017-11-03T17:00:48.797Z,97.50
2017-11-03T17:03:15.601Z,96.30
2017-11-03T17:05:43.175Z,97.50
2017-11-03T17:08:10.737Z,97.10
2017-11-03T17:10:38.321Z,97.70
2017-11-03T17:13:05.110Z,97.70
2017-11-03T17:15:31.907Z,97.40
2017-11-03T17:17:58.715Z,97.70
2017-11-03T17:20:26.311Z,97.80
2017-11-03T17:22:53.117Z,97.70
2017-11-03T17:25:20.684Z,97.90
2017-11-03T17:27:48.235Z,98.00
2017-11-03T17:30:15.801Z,98.60
2017-11-03T17:32:43.371Z,97.70
2017-11-03T17:35:10.948Z,97.70
2017-11-03T17:37:37.738Z,97.70
2017-11-03T17:40:04.544Z,98.30
2017-11-03T17:42:31.352Z,97.70
2017-11-03T17:44:58.922Z,97.50
2017-11-03T17:47:26.493Z,97.40
2017-11-03T17:49:53.287Z,97.30
2017-11-03T17:52:20.086Z,97.30
2017-11-03T17:54:46.870Z,97.70
2017-11-03T17:57:13.658Z,97.80
2017-11-03T17:59:41.217Z,98.00
2017-11-03T18:02:09.830Z,98.00
2017-11-03T18:04:38.487Z,98.00
2017-11-03T18:07:06.046Z,95.00
2017-11-03T18:09:33.615Z,96.10
2017-11-03T18:12:00.419Z,96.50
2017-11-03T18:14:27.224Z,99.90
2017-11-03T18:16:54.025Z,92.40
2017-11-03T18:19:21.588Z,95.60
2017-11-03T18:21:49.163Z,96.00
2017-11-03T18:24:15.972Z,95.90
2017-11-03T18:26:42.769Z,96.20
2017-11-03T18:29:09.559Z,96.30
2017-11-03T18:31:36.355Z,97.20
2017-11-03T18:34:03.144Z,97.20
2017-11-03T18:36:29.951Z,97.30
2017-11-03T18:38:56.744Z,98.00
2017-11-03T18:41:24.308Z,99.10
2017-11-03T18:43:51.930Z,99.00
2017-11-03T18:46:18.738Z,98.90
2017-11-03T18:48:45.558Z,98.50
2017-11-03T18:51:13.130Z,97.80
2017-11-03T18:53:40.689Z,97.60
2017-11-03T18:56:08.250Z,98.20
2017-11-03T18:58:35.818Z,99.90
2017-11-03T19:01:02.650Z,99.90
2017-11-03T19:03:30.219Z,93.40
2017-11-03T19:05:57.814Z,94.00
2017-11-03T19:08:24.618Z,93.90
2017-11-03T19:10:52.189Z,96.40
2017-11-03T19:13:18.986Z,96.50
2017-11-03T19:15:45.908Z,96.00
2017-11-03T19:18:12.717Z,91.50
2017-11-03T19:20:39.523Z,90.00
2017-11-03T19:23:07.200Z,91.90
2017-11-03T19:25:35.625Z,91.10
2017-11-03T19:28:02.467Z,91.20
2017-11-03T19:30:29.269Z,93.90
2017-11-03T19:32:56.938Z,97.10
2017-11-03T19:35:23.766Z,97.00
2017-11-03T19:37:50.754Z,95.50
2017-11-03T19:40:17.541Z,95.80
2017-11-03T19:45:25.930Z,96.20
2017-11-03T19:47:52.849Z,97.10
2017-11-03T19:50:20.557Z,98.10
2017-11-03T19:52:47.358Z,98.10
2017-11-03T19:55:14.940Z,98.20
2017-11-03T19:57:41.797Z,98.20
2017-11-03T20:00:08.598Z,98.80
2017-11-03T20:02:35.420Z,99.20
2017-11-03T20:05:02.219Z,99.20
2017-11-03T20:07:29.038Z,98.90
2017-11-03T20:09:56.597Z,99.50
2017-11-03T20:12:24.189Z,99.40
2017-11-03T20:14:50.986Z,99.40
2017-11-03T20:17:17.800Z,99.40
2017-11-03T20:19:44.639Z,99.90
2017-11-03T20:22:11.505Z,99.90
2017-11-03T20:24:38.378Z,99.90
2017-11-03T20:27:05.997Z,99.90
2017-11-03T20:29:32.810Z,99.90
2017-11-03T20:31:59.677Z,99.90
2017-11-03T20:34:26.490Z,99.90
2017-11-03T20:36:53.513Z,99.90
2017-11-03T20:39:21.214Z,99.90
2017-11-03T20:41:48.033Z,99.90
2017-11-03T20:44:15.680Z,99.90
2017-11-03T20:46:43.283Z,99.90
2017-11-03T20:49:10.218Z,99.90
2017-11-03T20:51:37.088Z,99.90
2017-11-03T20:54:04.021Z,99.90
2017-11-03T20:56:30.945Z,99.90
2017-11-03T20:58:58.539Z,99.90
2017-11-03T21:01:25.353Z,99.90
2017-11-03T21:03:52.179Z,99.90
2017-11-03T21:06:19.775Z,99.90
2017-11-03T21:08:46.591Z,99.90
2017-11-03T21:11:14.290Z,99.90
2017-11-03T21:13:41.126Z,99.90
2017-11-03T21:16:07.950Z,99.90
2017-11-03T21:18:34.755Z,99.90
2017-11-03T21:21:01.555Z,99.90
2017-11-03T21:23:28.363Z,99.90
2017-11-03T21:25:55.941Z,99.90
2017-11-03T21:28:22.729Z,99.90
2017-11-03T21:30:49.539Z,99.10
2017-11-03T21:33:16.353Z,97.50
2017-11-03T21:35:43.928Z,99.00
2017-11-03T21:38:11.507Z,99.20
2017-11-03T21:40:38.324Z,99.20
2017-11-03T21:43:05.913Z,98.90
2017-11-03T21:45:32.761Z,98.90
2017-11-03T21:47:59.567Z,98.60
2017-11-03T21:50:27.121Z,99.50
2017-11-03T21:52:54.760Z,99.90
2017-11-03T21:55:21.601Z,99.70
2017-11-03T21:57:48.390Z,99.90
2017-11-03T22:00:15.984Z,99.90
2017-11-03T22:02:42.831Z,99.90
2017-11-03T22:05:09.762Z,99.90
2017-11-03T22:07:36.582Z,99.90
2017-11-03T22:10:04.163Z,99.90
2017-11-03T22:12:30.974Z,99.90
2017-11-03T22:14:58.534Z,99.90
2017-11-03T22:17:26.142Z,99.90
2017-11-03T22:19:53.009Z,99.90
2017-11-03T22:22:19.815Z,99.90
2017-11-03T22:24:46.666Z,99.90
2017-11-03T22:27:13.474Z,99.90
2017-11-03T22:29:41.051Z,99.90
2017-11-03T22:32:07.874Z,99.90
2017-11-03T22:34:35.447Z,99.90
2017-11-03T22:37:03.029Z,99.90
2017-11-03T22:39:29.833Z,99.90
2017-11-03T22:41:57.463Z,99.90
2017-11-03T22:44:24.262Z,99.90
2017-11-03T22:46:51.073Z,99.90
2017-11-03T22:49:18.631Z,99.90
2017-11-03T22:51:46.198Z,99.90
2017-11-03T22:54:13.007Z,99.90
2017-11-03T22:56:39.837Z,99.90
2017-11-03T22:59:06.839Z,99.90
2017-11-03T23:01:34.508Z,99.90
2017-11-03T23:04:02.265Z,99.90
2017-11-03T23:06:29.877Z,99.90
2017-11-03T23:08:56.676Z,99.90
2017-11-03T23:11:24.226Z,99.90
2017-11-03T23:13:51.807Z,99.90
2017-11-03T23:16:19.378Z,99.90
2017-11-03T23:18:46.160Z,99.90
2017-11-03T23:21:12.967Z,99.90
2017-11-03T23:23:39.773Z,99.90
2017-11-03T23:26:06.584Z,99.90
2017-11-03T23:28:33.383Z,99.90
2017-11-03T23:31:00.953Z,99.90
2017-11-03T23:33:27.763Z,99.90
2017-11-03T23:35:55.334Z,99.90
2017-11-03T23:38:22.893Z,99.90
2017-11-03T23:40:50.462Z,99.90
2017-11-03T23:43:18.034Z,99.90
2017-11-03T23:45:48.695Z,99.90
2017-11-03T23:48:15.494Z,99.90
2017-11-03T23:50:43.180Z,99.90
2017-11-03T23:53:09.982Z,99.90
2017-11-03T23:55:36.825Z,99.90
2017-11-03T23:58:03.638Z,99.90
